sensor_id;sensor_type;location;lat;lon;timestamp;P1;durP1;ratioP1;P2;durP2;ratioP2
4202;SDS011;2115;51.038;7.006;2023-05-07T00:01:03;664.20;;;267.00;;
4202;SDS011;2115;51.038;7.006;2023-05-07T00:03:28;682.87;;;294.83;;
4202;SDS011;2115;51.038;7.006;2023-05-07T00:05:53;662.00;;;269.63;;
4202;SDS011;2115;51.038;7.006;2023-05-07T00:08:19;671.77;;;266.50;;
4202;SDS011;2115;51.038;7.006;2023-05-07T00:10:45;662.80;;;251.87;;
4202;SDS011;2115;51.038;7.006;2023-05-07T00:13:11;668.77;;;278.67;;
4202;SDS011;2115;51.038;7.006;2023-05-07T00:15:36;662.10;;;275.03;;
4202;SDS011;2115;51.038;7.006;2023-05-07T00:18:02;661.47;;;255.37;;
4202;SDS011;2115;51.038;7.006;2023-05-07T00:20:27;662.30;;;265.67;;
4202;SDS011;2115;51.038;7.006;2023-05-07T00:22:53;664.33;;;260.67;;
4202;SDS011;2115;51.038;7.006;2023-05-07T00:25:18;662.57;;;254.73;;
4202;SDS011;2115;51.038;7.006;2023-05-07T00:27:44;660.73;;;256.27;;
4202;SDS011;2115;51.038;7.006;2023-05-07T00:30:10;655.37;;;250.73;;
4202;SDS011;2115;51.038;7.006;2023-05-07T00:32:36;665.70;;;260.43;;
4202;SDS011;2115;51.038;7.006;2023-05-07T00:35:02;663.50;;;270.07;;
4202;SDS011;2115;51.038;7.006;2023-05-07T00:37:27;660.03;;;259.77;;
4202;SDS011;2115;51.038;7.006;2023-05-07T00:39:53;665.60;;;269.60;;
4202;SDS011;2115;51.038;7.006;2023-05-07T00:42:18;662.70;;;267.77;;
4202;SDS011;2115;51.038;7.006;2023-05-07T00:44:43;663.90;;;271.70;;
4202;SDS011;2115;51.038;7.006;2023-05-07T00:47:09;672.10;;;269.67;;
4202;SDS011;2115;51.038;7.006;2023-05-07T00:49:37;669.53;;;271.63;;
4202;SDS011;2115;51.038;7.006;2023-05-07T00:52:04;664.10;;;259.57;;
4202;SDS011;2115;51.038;7.006;2023-05-07T00:54:31;655.30;;;244.80;;
4202;SDS011;2115;51.038;7.006;2023-05-07T00:56:57;665.63;;;254.73;;
4202;SDS011;2115;51.038;7.006;2023-05-07T00:59:22;659.77;;;249.53;;
4202;SDS011;2115;51.038;7.006;2023-05-07T01:01:48;662.47;;;262.53;;
4202;SDS011;2115;51.038;7.006;2023-05-07T01:04:13;665.87;;;253.73;;
4202;SDS011;2115;51.038;7.006;2023-05-07T01:06:39;663.20;;;258.60;;
4202;SDS011;2115;51.038;7.006;2023-05-07T01:09:05;659.97;;;254.00;;
4202;SDS011;2115;51.038;7.006;2023-05-07T01:11:31;662.27;;;259.80;;
4202;SDS011;2115;51.038;7.006;2023-05-07T01:13:56;659.53;;;255.40;;
4202;SDS011;2115;51.038;7.006;2023-05-07T01:16:23;663.67;;;254.47;;
4202;SDS011;2115;51.038;7.006;2023-05-07T01:18:49;656.63;;;253.27;;
4202;SDS011;2115;51.038;7.006;2023-05-07T01:21:15;651.40;;;243.43;;
4202;SDS011;2115;51.038;7.006;2023-05-07T01:23:41;651.07;;;244.30;;
4202;SDS011;2115;51.038;7.006;2023-05-07T01:26:06;673.63;;;254.50;;
4202;SDS011;2115;51.038;7.006;2023-05-07T01:28:32;653.27;;;238.20;;
4202;SDS011;2115;51.038;7.006;2023-05-07T01:31:01;654.23;;;246.57;;
4202;SDS011;2115;51.038;7.006;2023-05-07T01:33:29;650.37;;;243.37;;
4202;SDS011;2115;51.038;7.006;2023-05-07T01:35:56;654.90;;;254.77;;
4202;SDS011;2115;51.038;7.006;2023-05-07T01:38:23;658.20;;;247.77;;
4202;SDS011;2115;51.038;7.006;2023-05-07T01:40:48;659.53;;;260.07;;
4202;SDS011;2115;51.038;7.006;2023-05-07T01:43:14;654.73;;;246.03;;
4202;SDS011;2115;51.038;7.006;2023-05-07T01:45:40;653.97;;;252.83;;
4202;SDS011;2115;51.038;7.006;2023-05-07T01:48:06;661.93;;;252.47;;
4202;SDS011;2115;51.038;7.006;2023-05-07T01:50:32;655.63;;;245.37;;
4202;SDS011;2115;51.038;7.006;2023-05-07T01:52:58;660.50;;;252.80;;
4202;SDS011;2115;51.038;7.006;2023-05-07T01:55:24;664.40;;;254.87;;
4202;SDS011;2115;51.038;7.006;2023-05-07T01:57:50;663.17;;;252.23;;
4202;SDS011;2115;51.038;7.006;2023-05-07T02:00:15;648.37;;;240.47;;
4202;SDS011;2115;51.038;7.006;2023-05-07T02:02:41;673.20;;;250.90;;
4202;SDS011;2115;51.038;7.006;2023-05-07T02:05:06;651.40;;;243.50;;
4202;SDS011;2115;51.038;7.006;2023-05-07T02:07:32;653.67;;;243.70;;
4202;SDS011;2115;51.038;7.006;2023-05-07T02:09:57;656.47;;;245.73;;
4202;SDS011;2115;51.038;7.006;2023-05-07T02:12:23;652.30;;;246.17;;
4202;SDS011;2115;51.038;7.006;2023-05-07T02:14:48;660.40;;;248.33;;
4202;SDS011;2115;51.038;7.006;2023-05-07T02:17:14;654.30;;;242.50;;
4202;SDS011;2115;51.038;7.006;2023-05-07T02:19:39;659.27;;;245.03;;
4202;SDS011;2115;51.038;7.006;2023-05-07T02:22:05;654.13;;;254.13;;
4202;SDS011;2115;51.038;7.006;2023-05-07T02:24:30;655.53;;;250.87;;
4202;SDS011;2115;51.038;7.006;2023-05-07T02:26:55;650.00;;;241.77;;
4202;SDS011;2115;51.038;7.006;2023-05-07T02:29:21;659.07;;;246.27;;
4202;SDS011;2115;51.038;7.006;2023-05-07T02:31:46;648.20;;;230.77;;
4202;SDS011;2115;51.038;7.006;2023-05-07T02:34:15;657.23;;;239.17;;
4202;SDS011;2115;51.038;7.006;2023-05-07T02:36:41;656.23;;;226.70;;
4202;SDS011;2115;51.038;7.006;2023-05-07T02:39:06;644.50;;;227.77;;
4202;SDS011;2115;51.038;7.006;2023-05-07T02:41:32;654.00;;;241.67;;
4202;SDS011;2115;51.038;7.006;2023-05-07T02:43:57;654.10;;;237.77;;
4202;SDS011;2115;51.038;7.006;2023-05-07T02:46:22;652.27;;;235.40;;
4202;SDS011;2115;51.038;7.006;2023-05-07T02:48:48;656.33;;;241.60;;
4202;SDS011;2115;51.038;7.006;2023-05-07T02:51:13;651.80;;;229.70;;
4202;SDS011;2115;51.038;7.006;2023-05-07T02:53:38;641.37;;;223.00;;
4202;SDS011;2115;51.038;7.006;2023-05-07T02:56:04;645.07;;;232.63;;
4202;SDS011;2115;51.038;7.006;2023-05-07T02:58:31;645.03;;;227.80;;
4202;SDS011;2115;51.038;7.006;2023-05-07T03:00:56;651.97;;;237.10;;
4202;SDS011;2115;51.038;7.006;2023-05-07T03:03:22;647.93;;;225.57;;
4202;SDS011;2115;51.038;7.006;2023-05-07T03:05:47;646.60;;;227.70;;
4202;SDS011;2115;51.038;7.006;2023-05-07T03:08:13;650.40;;;226.13;;
4202;SDS011;2115;51.038;7.006;2023-05-07T03:10:38;644.77;;;220.07;;
4202;SDS011;2115;51.038;7.006;2023-05-07T03:13:04;644.67;;;226.70;;
4202;SDS011;2115;51.038;7.006;2023-05-07T03:15:29;660.00;;;236.37;;
4202;SDS011;2115;51.038;7.006;2023-05-07T03:17:54;645.43;;;235.13;;
4202;SDS011;2115;51.038;7.006;2023-05-07T03:20:20;646.70;;;228.83;;
4202;SDS011;2115;51.038;7.006;2023-05-07T03:22:45;644.47;;;228.80;;
4202;SDS011;2115;51.038;7.006;2023-05-07T03:25:11;638.67;;;220.80;;
4202;SDS011;2115;51.038;7.006;2023-05-07T03:27:37;652.53;;;236.03;;
4202;SDS011;2115;51.038;7.006;2023-05-07T03:30:03;649.40;;;236.40;;
4202;SDS011;2115;51.038;7.006;2023-05-07T03:32:29;644.30;;;226.67;;
4202;SDS011;2115;51.038;7.006;2023-05-07T03:34:54;648.53;;;229.37;;
4202;SDS011;2115;51.038;7.006;2023-05-07T03:37:20;652.37;;;239.27;;
4202;SDS011;2115;51.038;7.006;2023-05-07T03:39:46;661.03;;;236.17;;
4202;SDS011;2115;51.038;7.006;2023-05-07T03:42:12;658.87;;;248.77;;
4202;SDS011;2115;51.038;7.006;2023-05-07T03:44:37;658.80;;;240.50;;
4202;SDS011;2115;51.038;7.006;2023-05-07T03:47:02;654.27;;;234.87;;
4202;SDS011;2115;51.038;7.006;2023-05-07T03:49:28;639.80;;;214.33;;
4202;SDS011;2115;51.038;7.006;2023-05-07T03:51:54;649.20;;;235.73;;
4202;SDS011;2115;51.038;7.006;2023-05-07T03:54:19;655.30;;;233.80;;
4202;SDS011;2115;51.038;7.006;2023-05-07T03:56:44;657.40;;;233.40;;
4202;SDS011;2115;51.038;7.006;2023-05-07T03:59:10;662.37;;;235.70;;
4202;SDS011;2115;51.038;7.006;2023-05-07T04:01:37;644.07;;;219.10;;
4202;SDS011;2115;51.038;7.006;2023-05-07T04:04:02;660.37;;;245.43;;
4202;SDS011;2115;51.038;7.006;2023-05-07T04:06:28;645.00;;;215.30;;
4202;SDS011;2115;51.038;7.006;2023-05-07T04:08:53;655.30;;;232.70;;
4202;SDS011;2115;51.038;7.006;2023-05-07T04:11:18;635.43;;;217.13;;
4202;SDS011;2115;51.038;7.006;2023-05-07T04:13:45;639.93;;;213.13;;
4202;SDS011;2115;51.038;7.006;2023-05-07T04:16:10;628.43;;;202.47;;
4202;SDS011;2115;51.038;7.006;2023-05-07T04:18:36;631.77;;;211.60;;
4202;SDS011;2115;51.038;7.006;2023-05-07T04:21:01;632.17;;;211.17;;
4202;SDS011;2115;51.038;7.006;2023-05-07T04:23:26;635.07;;;217.50;;
4202;SDS011;2115;51.038;7.006;2023-05-07T04:25:51;642.80;;;227.03;;
4202;SDS011;2115;51.038;7.006;2023-05-07T04:28:17;631.77;;;219.50;;
4202;SDS011;2115;51.038;7.006;2023-05-07T04:30:43;637.30;;;222.40;;
4202;SDS011;2115;51.038;7.006;2023-05-07T04:33:08;643.13;;;217.17;;
4202;SDS011;2115;51.038;7.006;2023-05-07T04:35:33;632.43;;;212.33;;
4202;SDS011;2115;51.038;7.006;2023-05-07T04:37:59;633.83;;;222.50;;
4202;SDS011;2115;51.038;7.006;2023-05-07T04:40:25;642.20;;;233.40;;
4202;SDS011;2115;51.038;7.006;2023-05-07T04:42:50;647.30;;;233.83;;
4202;SDS011;2115;51.038;7.006;2023-05-07T04:45:16;639.50;;;217.37;;
4202;SDS011;2115;51.038;7.006;2023-05-07T04:47:43;647.07;;;222.67;;
4202;SDS011;2115;51.038;7.006;2023-05-07T04:50:08;642.23;;;221.83;;
4202;SDS011;2115;51.038;7.006;2023-05-07T04:52:34;639.17;;;227.10;;
4202;SDS011;2115;51.038;7.006;2023-05-07T04:54:59;642.53;;;229.50;;
4202;SDS011;2115;51.038;7.006;2023-05-07T04:57:25;645.17;;;231.10;;
4202;SDS011;2115;51.038;7.006;2023-05-07T04:59:51;643.37;;;228.47;;
4202;SDS011;2115;51.038;7.006;2023-05-07T05:02:16;643.20;;;223.27;;
4202;SDS011;2115;51.038;7.006;2023-05-07T05:04:42;645.80;;;230.87;;
4202;SDS011;2115;51.038;7.006;2023-05-07T05:07:07;655.60;;;229.17;;
4202;SDS011;2115;51.038;7.006;2023-05-07T05:09:32;653.17;;;237.10;;
4202;SDS011;2115;51.038;7.006;2023-05-07T05:11:58;650.03;;;227.57;;
4202;SDS011;2115;51.038;7.006;2023-05-07T05:14:24;659.67;;;248.57;;
4202;SDS011;2115;51.038;7.006;2023-05-07T05:16:49;648.00;;;237.07;;
4202;SDS011;2115;51.038;7.006;2023-05-07T05:19:15;656.57;;;245.07;;
4202;SDS011;2115;51.038;7.006;2023-05-07T05:21:40;660.17;;;252.17;;
4202;SDS011;2115;51.038;7.006;2023-05-07T05:24:05;660.47;;;249.27;;
4202;SDS011;2115;51.038;7.006;2023-05-07T05:26:31;663.00;;;251.97;;
4202;SDS011;2115;51.038;7.006;2023-05-07T05:28:56;673.00;;;264.10;;
4202;SDS011;2115;51.038;7.006;2023-05-07T05:31:22;678.57;;;258.47;;
4202;SDS011;2115;51.038;7.006;2023-05-07T05:33:47;676.97;;;267.00;;
4202;SDS011;2115;51.038;7.006;2023-05-07T05:36:12;667.90;;;265.37;;
4202;SDS011;2115;51.038;7.006;2023-05-07T05:38:39;672.33;;;269.57;;
4202;SDS011;2115;51.038;7.006;2023-05-07T05:41:05;671.93;;;258.83;;
4202;SDS011;2115;51.038;7.006;2023-05-07T05:43:30;672.60;;;272.37;;
4202;SDS011;2115;51.038;7.006;2023-05-07T05:45:56;682.77;;;287.57;;
4202;SDS011;2115;51.038;7.006;2023-05-07T05:48:22;679.47;;;276.90;;
4202;SDS011;2115;51.038;7.006;2023-05-07T05:50:47;685.57;;;282.73;;
4202;SDS011;2115;51.038;7.006;2023-05-07T05:53:13;684.93;;;298.63;;
4202;SDS011;2115;51.038;7.006;2023-05-07T05:55:38;690.80;;;286.40;;
4202;SDS011;2115;51.038;7.006;2023-05-07T05:58:04;704.77;;;299.13;;
4202;SDS011;2115;51.038;7.006;2023-05-07T06:00:29;683.60;;;293.03;;
4202;SDS011;2115;51.038;7.006;2023-05-07T06:02:55;684.83;;;286.37;;
4202;SDS011;2115;51.038;7.006;2023-05-07T06:05:20;692.13;;;312.03;;
4202;SDS011;2115;51.038;7.006;2023-05-07T06:07:45;697.70;;;315.63;;
4202;SDS011;2115;51.038;7.006;2023-05-07T06:10:11;691.37;;;305.83;;
4202;SDS011;2115;51.038;7.006;2023-05-07T06:12:36;695.93;;;318.13;;
4202;SDS011;2115;51.038;7.006;2023-05-07T06:15:02;696.27;;;318.37;;
4202;SDS011;2115;51.038;7.006;2023-05-07T06:17:27;702.07;;;299.73;;
4202;SDS011;2115;51.038;7.006;2023-05-07T06:19:53;703.23;;;316.90;;
4202;SDS011;2115;51.038;7.006;2023-05-07T06:22:18;703.40;;;313.90;;
4202;SDS011;2115;51.038;7.006;2023-05-07T06:24:44;721.70;;;341.23;;
4202;SDS011;2115;51.038;7.006;2023-05-07T06:27:09;707.80;;;320.47;;
4202;SDS011;2115;51.038;7.006;2023-05-07T06:29:35;709.87;;;335.70;;
4202;SDS011;2115;51.038;7.006;2023-05-07T06:32:07;713.47;;;354.30;;
4202;SDS011;2115;51.038;7.006;2023-05-07T06:34:33;722.83;;;349.40;;
4202;SDS011;2115;51.038;7.006;2023-05-07T06:37:01;733.77;;;372.10;;
4202;SDS011;2115;51.038;7.006;2023-05-07T06:39:27;722.93;;;354.10;;
4202;SDS011;2115;51.038;7.006;2023-05-07T06:41:53;728.43;;;347.80;;
4202;SDS011;2115;51.038;7.006;2023-05-07T06:44:18;720.37;;;358.50;;
4202;SDS011;2115;51.038;7.006;2023-05-07T06:46:43;728.23;;;382.87;;
4202;SDS011;2115;51.038;7.006;2023-05-07T06:49:09;732.40;;;384.00;;
4202;SDS011;2115;51.038;7.006;2023-05-07T06:51:34;728.00;;;361.60;;
4202;SDS011;2115;51.038;7.006;2023-05-07T06:53:59;723.87;;;363.10;;
4202;SDS011;2115;51.038;7.006;2023-05-07T06:56:25;728.37;;;373.47;;
4202;SDS011;2115;51.038;7.006;2023-05-07T06:58:50;724.60;;;362.03;;
4202;SDS011;2115;51.038;7.006;2023-05-07T07:01:19;729.07;;;384.20;;
4202;SDS011;2115;51.038;7.006;2023-05-07T07:03:45;726.57;;;377.17;;
4202;SDS011;2115;51.038;7.006;2023-05-07T07:06:10;729.20;;;390.77;;
4202;SDS011;2115;51.038;7.006;2023-05-07T07:08:35;731.33;;;382.77;;
4202;SDS011;2115;51.038;7.006;2023-05-07T07:11:03;725.60;;;377.87;;
4202;SDS011;2115;51.038;7.006;2023-05-07T07:13:28;736.73;;;374.13;;
4202;SDS011;2115;51.038;7.006;2023-05-07T07:15:54;740.60;;;399.53;;
4202;SDS011;2115;51.038;7.006;2023-05-07T07:18:19;735.83;;;400.10;;
4202;SDS011;2115;51.038;7.006;2023-05-07T07:20:45;743.40;;;408.80;;
4202;SDS011;2115;51.038;7.006;2023-05-07T07:23:10;756.63;;;428.27;;
4202;SDS011;2115;51.038;7.006;2023-05-07T07:25:36;742.73;;;407.13;;
4202;SDS011;2115;51.038;7.006;2023-05-07T07:28:01;746.57;;;431.60;;
4202;SDS011;2115;51.038;7.006;2023-05-07T07:30:29;742.37;;;427.40;;
4202;SDS011;2115;51.038;7.006;2023-05-07T07:32:54;755.40;;;445.63;;
4202;SDS011;2115;51.038;7.006;2023-05-07T07:35:22;754.70;;;429.03;;
4202;SDS011;2115;51.038;7.006;2023-05-07T07:37:48;750.43;;;444.03;;
4202;SDS011;2115;51.038;7.006;2023-05-07T07:40:15;763.13;;;465.60;;
4202;SDS011;2115;51.038;7.006;2023-05-07T07:42:40;748.80;;;444.37;;
4202;SDS011;2115;51.038;7.006;2023-05-07T07:45:06;756.83;;;462.43;;
4202;SDS011;2115;51.038;7.006;2023-05-07T07:47:32;761.13;;;467.03;;
4202;SDS011;2115;51.038;7.006;2023-05-07T07:49:57;751.07;;;433.10;;
4202;SDS011;2115;51.038;7.006;2023-05-07T07:52:22;753.17;;;447.57;;
4202;SDS011;2115;51.038;7.006;2023-05-07T07:54:48;763.70;;;461.70;;
4202;SDS011;2115;51.038;7.006;2023-05-07T07:57:13;761.27;;;478.30;;
4202;SDS011;2115;51.038;7.006;2023-05-07T07:59:38;772.23;;;493.33;;
4202;SDS011;2115;51.038;7.006;2023-05-07T08:02:04;768.07;;;490.30;;
4202;SDS011;2115;51.038;7.006;2023-05-07T08:04:30;752.23;;;459.93;;
4202;SDS011;2115;51.038;7.006;2023-05-07T08:06:58;765.77;;;493.50;;
4202;SDS011;2115;51.038;7.006;2023-05-07T08:09:23;768.00;;;477.03;;
4202;SDS011;2115;51.038;7.006;2023-05-07T08:11:48;765.03;;;495.87;;
4202;SDS011;2115;51.038;7.006;2023-05-07T08:14:14;763.97;;;480.40;;
4202;SDS011;2115;51.038;7.006;2023-05-07T08:16:40;776.57;;;507.33;;
4202;SDS011;2115;51.038;7.006;2023-05-07T08:19:06;795.97;;;535.60;;
4202;SDS011;2115;51.038;7.006;2023-05-07T08:21:31;773.67;;;534.23;;
4202;SDS011;2115;51.038;7.006;2023-05-07T08:23:57;770.10;;;530.70;;
4202;SDS011;2115;51.038;7.006;2023-05-07T08:26:22;766.47;;;505.47;;
4202;SDS011;2115;51.038;7.006;2023-05-07T08:28:47;772.20;;;510.17;;
4202;SDS011;2115;51.038;7.006;2023-05-07T08:31:13;772.87;;;523.30;;
4202;SDS011;2115;51.038;7.006;2023-05-07T08:33:38;769.73;;;497.90;;
4202;SDS011;2115;51.038;7.006;2023-05-07T08:36:04;761.50;;;493.23;;
4202;SDS011;2115;51.038;7.006;2023-05-07T08:38:29;773.07;;;508.87;;
4202;SDS011;2115;51.038;7.006;2023-05-07T08:40:55;776.77;;;509.43;;
4202;SDS011;2115;51.038;7.006;2023-05-07T08:43:20;776.57;;;525.93;;
4202;SDS011;2115;51.038;7.006;2023-05-07T08:45:46;783.47;;;538.37;;
4202;SDS011;2115;51.038;7.006;2023-05-07T08:48:15;780.27;;;547.27;;
4202;SDS011;2115;51.038;7.006;2023-05-07T08:50:41;783.13;;;554.17;;
4202;SDS011;2115;51.038;7.006;2023-05-07T08:53:07;781.97;;;555.30;;
4202;SDS011;2115;51.038;7.006;2023-05-07T08:55:32;795.10;;;586.07;;
4202;SDS011;2115;51.038;7.006;2023-05-07T08:57:58;789.43;;;582.37;;
4202;SDS011;2115;51.038;7.006;2023-05-07T09:00:24;798.13;;;572.40;;
4202;SDS011;2115;51.038;7.006;2023-05-07T09:02:49;786.00;;;577.97;;
4202;SDS011;2115;51.038;7.006;2023-05-07T09:05:15;805.03;;;630.40;;
4202;SDS011;2115;51.038;7.006;2023-05-07T09:07:40;790.23;;;584.87;;
4202;SDS011;2115;51.038;7.006;2023-05-07T09:10:06;793.63;;;600.37;;
4202;SDS011;2115;51.038;7.006;2023-05-07T09:12:32;791.83;;;593.93;;
4202;SDS011;2115;51.038;7.006;2023-05-07T09:14:58;792.67;;;608.07;;
4202;SDS011;2115;51.038;7.006;2023-05-07T09:17:24;790.33;;;614.80;;
4202;SDS011;2115;51.038;7.006;2023-05-07T09:19:49;785.33;;;584.47;;
4202;SDS011;2115;51.038;7.006;2023-05-07T09:22:15;791.10;;;593.73;;
4202;SDS011;2115;51.038;7.006;2023-05-07T09:24:40;795.83;;;629.93;;
4202;SDS011;2115;51.038;7.006;2023-05-07T09:27:05;786.30;;;600.87;;
4202;SDS011;2115;51.038;7.006;2023-05-07T09:29:34;800.60;;;622.33;;
4202;SDS011;2115;51.038;7.006;2023-05-07T09:32:03;803.70;;;642.53;;
4202;SDS011;2115;51.038;7.006;2023-05-07T09:34:30;792.80;;;617.23;;
4202;SDS011;2115;51.038;7.006;2023-05-07T09:37:06;800.67;;;632.97;;
4202;SDS011;2115;51.038;7.006;2023-05-07T09:39:42;796.70;;;643.03;;
4202;SDS011;2115;51.038;7.006;2023-05-07T09:42:08;801.87;;;654.60;;
4202;SDS011;2115;51.038;7.006;2023-05-07T09:44:34;799.70;;;655.77;;
4202;SDS011;2115;51.038;7.006;2023-05-07T09:47:00;799.43;;;643.57;;
4202;SDS011;2115;51.038;7.006;2023-05-07T09:49:28;798.40;;;618.20;;
4202;SDS011;2115;51.038;7.006;2023-05-07T09:51:57;803.40;;;660.10;;
4202;SDS011;2115;51.038;7.006;2023-05-07T09:54:25;797.83;;;646.27;;
4202;SDS011;2115;51.038;7.006;2023-05-07T09:56:51;817.83;;;667.20;;
4202;SDS011;2115;51.038;7.006;2023-05-07T09:59:17;811.67;;;670.50;;
4202;SDS011;2115;51.038;7.006;2023-05-07T10:01:43;800.40;;;636.60;;
4202;SDS011;2115;51.038;7.006;2023-05-07T10:04:10;803.90;;;674.80;;
4202;SDS011;2115;51.038;7.006;2023-05-07T10:06:36;812.07;;;684.40;;
4202;SDS011;2115;51.038;7.006;2023-05-07T10:09:02;823.07;;;690.80;;
4202;SDS011;2115;51.038;7.006;2023-05-07T10:11:30;817.20;;;696.73;;
4202;SDS011;2115;51.038;7.006;2023-05-07T10:13:57;811.20;;;694.23;;
4202;SDS011;2115;51.038;7.006;2023-05-07T10:16:22;806.83;;;670.33;;
4202;SDS011;2115;51.038;7.006;2023-05-07T10:18:48;811.47;;;684.07;;
4202;SDS011;2115;51.038;7.006;2023-05-07T10:21:19;814.20;;;714.73;;
4202;SDS011;2115;51.038;7.006;2023-05-07T10:23:49;822.20;;;716.43;;
4202;SDS011;2115;51.038;7.006;2023-05-07T10:26:24;827.50;;;735.33;;
4202;SDS011;2115;51.038;7.006;2023-05-07T10:28:57;816.67;;;710.80;;
4202;SDS011;2115;51.038;7.006;2023-05-07T10:34:09;856.50;;;763.97;;
4202;SDS011;2115;51.038;7.006;2023-05-07T10:36:36;886.93;;;794.03;;
4202;SDS011;2115;51.038;7.006;2023-05-07T10:39:02;859.50;;;766.83;;
4202;SDS011;2115;51.038;7.006;2023-05-07T10:41:27;863.03;;;771.03;;
4202;SDS011;2115;51.038;7.006;2023-05-07T10:43:53;879.97;;;786.47;;
4202;SDS011;2115;51.038;7.006;2023-05-07T10:46:20;885.97;;;792.00;;
4202;SDS011;2115;51.038;7.006;2023-05-07T10:51:28;881.97;;;788.50;;
4202;SDS011;2115;51.038;7.006;2023-05-07T10:54:40;884.17;;;791.67;;
4202;SDS011;2115;51.038;7.006;2023-05-07T10:56:44;884.00;;;791.30;;
4202;SDS011;2115;51.038;7.006;2023-05-07T11:02:01;904.33;;;810.93;;
4202;SDS011;2115;51.038;7.006;2023-05-07T11:04:29;925.23;;;831.63;;
4202;SDS011;2115;51.038;7.006;2023-05-07T11:13:03;900.30;;;807.73;;
4202;SDS011;2115;51.038;7.006;2023-05-07T11:15:07;908.53;;;815.27;;
4202;SDS011;2115;51.038;7.006;2023-05-07T11:17:52;908.07;;;813.97;;
4202;SDS011;2115;51.038;7.006;2023-05-07T11:26:09;916.53;;;821.90;;
4202;SDS011;2115;51.038;7.006;2023-05-07T11:28:37;928.50;;;834.43;;
4202;SDS011;2115;51.038;7.006;2023-05-07T11:31:03;911.13;;;817.53;;
4202;SDS011;2115;51.038;7.006;2023-05-07T11:33:30;921.93;;;828.33;;
4202;SDS011;2115;51.038;7.006;2023-05-07T11:35:56;913.17;;;819.77;;
4202;SDS011;2115;51.038;7.006;2023-05-07T11:38:22;938.03;;;842.97;;
4202;SDS011;2115;51.038;7.006;2023-05-07T11:40:50;954.63;;;858.90;;
4202;SDS011;2115;51.038;7.006;2023-05-07T11:43:25;966.23;;;869.53;;
4202;SDS011;2115;51.038;7.006;2023-05-07T11:45:51;964.10;;;868.23;;
4202;SDS011;2115;51.038;7.006;2023-05-07T11:48:16;972.30;;;875.73;;
4202;SDS011;2115;51.038;7.006;2023-05-07T11:50:52;964.53;;;869.17;;
4202;SDS011;2115;51.038;7.006;2023-05-07T11:53:19;964.13;;;867.83;;
4202;SDS011;2115;51.038;7.006;2023-05-07T11:55:45;969.20;;;873.23;;
4202;SDS011;2115;51.038;7.006;2023-05-07T11:58:12;958.83;;;861.40;;
4202;SDS011;2115;51.038;7.006;2023-05-07T12:00:37;984.27;;;887.87;;
4202;SDS011;2115;51.038;7.006;2023-05-07T12:03:06;989.80;;;893.27;;
4202;SDS011;2115;51.038;7.006;2023-05-07T12:05:31;997.80;;;900.67;;
4202;SDS011;2115;51.038;7.006;2023-05-07T12:07:57;974.83;;;878.47;;
4202;SDS011;2115;51.038;7.006;2023-05-07T12:10:22;992.73;;;896.13;;
4202;SDS011;2115;51.038;7.006;2023-05-07T12:12:49;991.83;;;895.53;;
4202;SDS011;2115;51.038;7.006;2023-05-07T12:15:15;983.63;;;888.07;;
4202;SDS011;2115;51.038;7.006;2023-05-07T12:17:41;1009.13;;;912.57;;
4202;SDS011;2115;51.038;7.006;2023-05-07T12:20:07;1030.63;;;932.37;;
4202;SDS011;2115;51.038;7.006;2023-05-07T12:22:32;1026.40;;;929.23;;
4202;SDS011;2115;51.038;7.006;2023-05-07T12:24:58;1022.93;;;926.23;;
4202;SDS011;2115;51.038;7.006;2023-05-07T12:27:24;1024.50;;;926.03;;
4202;SDS011;2115;51.038;7.006;2023-05-07T12:29:50;1028.37;;;930.57;;
4202;SDS011;2115;51.038;7.006;2023-05-07T12:32:16;1029.90;;;931.33;;
4202;SDS011;2115;51.038;7.006;2023-05-07T12:34:46;1025.47;;;927.47;;
4202;SDS011;2115;51.038;7.006;2023-05-07T12:37:12;1031.13;;;931.83;;
4202;SDS011;2115;51.038;7.006;2023-05-07T12:39:38;1024.73;;;926.23;;
4202;SDS011;2115;51.038;7.006;2023-05-07T12:42:09;1028.00;;;927.47;;
4202;SDS011;2115;51.038;7.006;2023-05-07T12:44:40;998.73;;;900.53;;
4202;SDS011;2115;51.038;7.006;2023-05-07T12:47:06;1000.43;;;901.80;;
4202;SDS011;2115;51.038;7.006;2023-05-07T12:49:33;1020.83;;;920.03;;
4202;SDS011;2115;51.038;7.006;2023-05-07T12:52:01;1036.10;;;935.03;;
4202;SDS011;2115;51.038;7.006;2023-05-07T12:54:28;1029.33;;;928.73;;
4202;SDS011;2115;51.038;7.006;2023-05-07T12:57:09;1015.40;;;914.80;;
4202;SDS011;2115;51.038;7.006;2023-05-07T12:59:41;1031.57;;;929.20;;
4202;SDS011;2115;51.038;7.006;2023-05-07T13:02:07;990.70;;;891.20;;
4202;SDS011;2115;51.038;7.006;2023-05-07T13:04:33;989.53;;;888.67;;
4202;SDS011;2115;51.038;7.006;2023-05-07T13:06:59;977.37;;;878.87;;
4202;SDS011;2115;51.038;7.006;2023-05-07T13:09:25;984.20;;;884.10;;
4202;SDS011;2115;51.038;7.006;2023-05-07T13:11:50;909.80;;;814.43;;
4202;SDS011;2115;51.038;7.006;2023-05-07T13:14:16;909.63;;;813.83;;
4202;SDS011;2115;51.038;7.006;2023-05-07T13:16:41;894.60;;;800.30;;
4202;SDS011;2115;51.038;7.006;2023-05-07T13:19:07;876.67;;;783.13;;
4202;SDS011;2115;51.038;7.006;2023-05-07T13:21:32;876.57;;;782.47;;
4202;SDS011;2115;51.038;7.006;2023-05-07T13:23:58;879.37;;;785.67;;
4202;SDS011;2115;51.038;7.006;2023-05-07T13:26:23;895.67;;;800.97;;
4202;SDS011;2115;51.038;7.006;2023-05-07T13:28:49;891.77;;;797.30;;
4202;SDS011;2115;51.038;7.006;2023-05-07T13:31:14;876.30;;;783.10;;
4202;SDS011;2115;51.038;7.006;2023-05-07T13:33:40;883.07;;;789.60;;
4202;SDS011;2115;51.038;7.006;2023-05-07T13:36:05;891.73;;;797.57;;
4202;SDS011;2115;51.038;7.006;2023-05-07T13:38:31;893.40;;;799.30;;
4202;SDS011;2115;51.038;7.006;2023-05-07T13:40:56;890.60;;;795.83;;
4202;SDS011;2115;51.038;7.006;2023-05-07T13:43:22;893.07;;;798.17;;
4202;SDS011;2115;51.038;7.006;2023-05-07T13:45:47;895.43;;;801.10;;
4202;SDS011;2115;51.038;7.006;2023-05-07T13:48:12;882.40;;;788.43;;
4202;SDS011;2115;51.038;7.006;2023-05-07T13:50:38;879.10;;;785.07;;
4202;SDS011;2115;51.038;7.006;2023-05-07T13:53:03;858.63;;;764.20;;
4202;SDS011;2115;51.038;7.006;2023-05-07T13:55:29;854.53;;;760.80;;
4202;SDS011;2115;51.038;7.006;2023-05-07T13:57:55;856.07;;;761.80;;
4202;SDS011;2115;51.038;7.006;2023-05-07T14:00:22;845.37;;;733.37;;
4202;SDS011;2115;51.038;7.006;2023-05-07T14:02:48;836.60;;;735.00;;
4202;SDS011;2115;51.038;7.006;2023-05-07T14:05:13;836.80;;;723.30;;
4202;SDS011;2115;51.038;7.006;2023-05-07T14:07:38;828.50;;;704.57;;
4202;SDS011;2115;51.038;7.006;2023-05-07T14:10:05;836.30;;;691.97;;
4202;SDS011;2115;51.038;7.006;2023-05-07T14:12:31;828.73;;;678.93;;
4202;SDS011;2115;51.038;7.006;2023-05-07T14:14:57;824.53;;;690.63;;
4202;SDS011;2115;51.038;7.006;2023-05-07T14:17:23;824.53;;;665.43;;
4202;SDS011;2115;51.038;7.006;2023-05-07T14:19:51;829.83;;;675.23;;
4202;SDS011;2115;51.038;7.006;2023-05-07T14:22:18;819.97;;;673.47;;
4202;SDS011;2115;51.038;7.006;2023-05-07T14:24:45;811.03;;;647.63;;
4202;SDS011;2115;51.038;7.006;2023-05-07T14:27:10;814.97;;;661.17;;
4202;SDS011;2115;51.038;7.006;2023-05-07T14:29:35;818.67;;;677.23;;
4202;SDS011;2115;51.038;7.006;2023-05-07T14:32:01;806.20;;;649.77;;
4202;SDS011;2115;51.038;7.006;2023-05-07T14:34:28;811.60;;;672.20;;